createdAt,value
2023-04-12T00:00:21.877Z,1.98
2023-04-12T00:01:21.874Z,2.22
2023-04-12T00:02:22.056Z,2.47
2023-04-12T00:03:22.029Z,2.07
2023-04-12T00:04:22.098Z,2.09
2023-04-12T00:05:22.034Z,2.11
2023-04-12T00:06:21.913Z,1.66
2023-04-12T00:07:21.915Z,2.29
2023-04-12T00:08:21.918Z,1.78
2023-04-12T00:09:21.901Z,2.31
2023-04-12T00:10:21.912Z,1.96
2023-04-12T00:11:21.917Z,2.49
2023-04-12T00:12:21.937Z,2.13
2023-04-12T00:13:21.970Z,2.66
2023-04-12T00:14:21.969Z,1.86
2023-04-12T00:15:21.970Z,2.13
2023-04-12T00:16:22.017Z,2.28
2023-04-12T00:17:22.080Z,1.96
2023-04-12T00:18:22.045Z,2.00
2023-04-12T00:19:22.069Z,2.07
2023-04-12T00:20:22.114Z,2.81
2023-04-12T00:21:22.135Z,1.82
2023-04-12T00:22:22.141Z,1.57
2023-04-12T00:23:22.142Z,1.50
2023-04-12T00:24:22.139Z,2.04
2023-04-12T00:25:22.187Z,1.68
2023-04-12T00:26:22.198Z,2.04
2023-04-12T00:27:22.231Z,2.03
2023-04-12T00:28:22.250Z,2.14
2023-04-12T00:29:22.295Z,1.75
2023-04-12T00:30:22.335Z,2.67
2023-04-12T00:31:22.442Z,2.31
2023-04-12T00:32:22.446Z,1.70
2023-04-12T00:33:22.477Z,2.05
2023-04-12T00:34:22.487Z,2.21
2023-04-12T00:35:22.514Z,2.07
2023-04-12T00:36:22.512Z,1.93
2023-04-12T00:37:22.530Z,1.76
2023-04-12T00:38:22.532Z,1.84
2023-04-12T00:39:22.540Z,1.92
2023-04-12T00:40:22.557Z,1.78
2023-04-12T00:41:22.544Z,2.85
2023-04-12T00:42:22.560Z,1.91
2023-04-12T00:43:22.585Z,2.74
2023-04-12T00:44:22.587Z,1.80
2023-04-12T00:45:22.627Z,1.85
2023-04-12T00:46:22.641Z,1.97
2023-04-12T00:47:22.699Z,1.91
2023-04-12T00:48:22.693Z,1.65
2023-04-12T00:49:22.675Z,1.67
2023-04-12T00:50:22.679Z,1.70
2023-04-12T00:51:22.730Z,3.34
2023-04-12T00:52:22.665Z,1.78
2023-04-12T00:53:22.709Z,2.07
2023-04-12T00:54:22.697Z,1.81
2023-04-12T00:55:22.718Z,3.03
2023-04-12T00:56:22.682Z,2.50
2023-04-12T00:57:22.700Z,2.35
2023-04-12T00:58:22.719Z,2.12
2023-04-12T00:59:22.715Z,2.11
2023-04-12T01:00:22.741Z,1.82
2023-04-12T01:01:22.818Z,1.71
2023-04-12T01:02:22.854Z,2.01
2023-04-12T01:03:23.039Z,1.78
2023-04-12T01:04:22.754Z,1.75
2023-04-12T01:05:22.776Z,2.41
2023-04-12T01:06:22.726Z,1.72
2023-04-12T01:07:22.731Z,1.81
2023-04-12T01:08:22.742Z,1.71
2023-04-12T01:09:22.737Z,1.84
2023-04-12T01:10:22.776Z,2.33
2023-04-12T01:11:22.750Z,1.55
2023-04-12T01:12:22.781Z,1.64
2023-04-12T01:13:22.804Z,1.83
2023-04-12T01:14:22.864Z,1.93
2023-04-12T01:15:22.870Z,1.71
2023-04-12T01:16:22.953Z,1.64
2023-04-12T01:17:22.934Z,1.92
2023-04-12T01:18:22.968Z,1.45
2023-04-12T01:19:23.028Z,1.86
2023-04-12T01:20:23.087Z,1.78
2023-04-12T01:21:23.147Z,2.11
2023-04-12T01:22:23.178Z,1.86
2023-04-12T01:23:23.239Z,1.70
2023-04-12T01:24:23.298Z,1.63
2023-04-12T01:25:23.354Z,1.86
2023-04-12T01:26:23.467Z,1.79
2023-04-12T01:27:23.497Z,2.15
2023-04-12T01:28:23.546Z,1.73
2023-04-12T01:29:23.567Z,1.69
2023-04-12T01:30:23.597Z,1.96
2023-04-12T01:31:23.652Z,1.48
2023-04-12T01:32:23.688Z,1.58
2023-04-12T01:33:23.693Z,1.79
2023-04-12T01:34:23.695Z,1.84
2023-04-12T01:35:23.737Z,1.84
2023-04-12T01:36:23.756Z,1.67
2023-04-12T01:37:23.751Z,1.62
2023-04-12T01:38:23.756Z,1.98
2023-04-12T01:39:23.760Z,1.69
2023-04-12T01:40:23.804Z,1.84
2023-04-12T01:41:23.850Z,1.84
2023-04-12T01:42:23.881Z,2.15
2023-04-12T01:43:23.943Z,2.18
2023-04-12T01:44:24.009Z,2.16
2023-04-12T01:45:24.066Z,2.12
2023-04-12T01:46:24.043Z,2.06
2023-04-12T01:47:24.107Z,1.98
2023-04-12T01:48:24.122Z,1.59
2023-04-12T01:49:24.176Z,2.02
2023-04-12T01:50:24.231Z,1.99
2023-04-12T01:51:24.280Z,1.69
2023-04-12T01:52:24.334Z,1.88
2023-04-12T01:53:24.376Z,2.06
2023-04-12T01:54:24.442Z,1.92
2023-04-12T01:55:24.490Z,2.09
2023-04-12T01:56:24.538Z,2.05
2023-04-12T01:57:24.590Z,1.93
2023-04-12T01:58:24.603Z,1.55
2023-04-12T01:59:24.633Z,2.09
2023-04-12T02:00:24.673Z,1.52
2023-04-12T02:01:24.750Z,1.35
2023-04-12T02:02:24.933Z,1.70
2023-04-12T02:03:25.034Z,1.76
2023-04-12T02:04:24.912Z,1.87
2023-04-12T02:05:24.960Z,1.30
2023-04-12T02:06:25.036Z,2.05
2023-04-12T02:07:25.092Z,1.76
2023-04-12T02:08:25.143Z,1.74
2023-04-12T02:09:25.185Z,2.30
2023-04-12T02:10:25.249Z,2.74
2023-04-12T02:11:25.289Z,1.90
2023-04-12T02:12:25.346Z,1.77
2023-04-12T02:13:25.393Z,1.94
2023-04-12T02:14:25.460Z,1.72
2023-04-12T02:15:25.522Z,1.67
2023-04-12T02:16:25.605Z,1.61
2023-04-12T02:17:25.629Z,1.42
2023-04-12T02:18:25.696Z,1.47
2023-04-12T02:19:25.754Z,1.73
2023-04-12T02:20:25.814Z,1.91
2023-04-12T02:21:25.866Z,2.33
2023-04-12T02:22:25.918Z,1.93
2023-04-12T02:23:25.965Z,1.78
2023-04-12T02:24:26.021Z,1.40
2023-04-12T02:25:26.088Z,1.41
2023-04-12T02:26:26.158Z,1.95
2023-04-12T02:27:26.201Z,1.73
2023-04-12T02:28:26.265Z,1.40
2023-04-12T02:29:26.329Z,1.07
2023-04-12T02:30:26.423Z,1.36
2023-04-12T02:31:26.430Z,1.44
2023-04-12T02:32:26.570Z,1.67
2023-04-12T02:33:26.557Z,1.65
2023-04-12T02:34:26.627Z,1.32
2023-04-12T02:35:26.710Z,1.43
2023-04-12T02:36:26.737Z,1.63
2023-04-12T02:37:26.805Z,1.68
2023-04-12T02:38:26.851Z,1.55
2023-04-12T02:39:26.913Z,1.74
2023-04-12T02:40:26.984Z,1.63
2023-04-12T02:41:27.025Z,1.54
2023-04-12T02:42:27.076Z,1.20
2023-04-12T02:43:27.133Z,1.75
2023-04-12T02:44:27.200Z,1.47
2023-04-12T02:45:27.256Z,1.73
2023-04-12T02:46:27.468Z,1.98
2023-04-12T02:47:27.495Z,1.41
2023-04-12T02:48:27.419Z,1.66
2023-04-12T02:49:28.292Z,1.48
2023-04-12T02:50:27.536Z,2.08
2023-04-12T02:51:27.603Z,1.37
2023-04-12T02:52:27.639Z,1.68
2023-04-12T02:53:27.712Z,1.48
2023-04-12T02:54:27.767Z,1.79
2023-04-12T02:55:27.828Z,1.23
2023-04-12T02:56:27.890Z,1.35
2023-04-12T02:57:27.945Z,1.46
2023-04-12T02:58:28.003Z,2.05
2023-04-12T02:59:28.066Z,1.91
2023-04-12T03:00:28.126Z,1.28
2023-04-12T03:01:28.255Z,1.45
2023-04-12T03:02:28.339Z,1.75
2023-04-12T03:03:28.413Z,1.33
2023-04-12T03:04:28.646Z,1.42
2023-04-12T03:05:28.445Z,1.49
2023-04-12T03:06:28.503Z,1.70
2023-04-12T03:07:28.560Z,1.60
2023-04-12T03:08:28.628Z,1.32
2023-04-12T03:09:28.687Z,1.56
2023-04-12T03:10:28.743Z,1.43
2023-04-12T03:11:28.815Z,1.46
2023-04-12T03:12:28.868Z,1.80
2023-04-12T03:13:28.924Z,1.23
2023-04-12T03:14:28.970Z,1.44
2023-04-12T03:15:29.082Z,1.60
2023-04-12T03:16:29.104Z,1.80
2023-04-12T03:17:29.178Z,1.65
2023-04-12T03:18:29.222Z,1.68
2023-04-12T03:19:29.283Z,1.54
2023-04-12T03:20:29.328Z,1.24
2023-04-12T03:21:29.416Z,1.31
2023-04-12T03:22:29.458Z,1.51
2023-04-12T03:23:29.525Z,1.79
2023-04-12T03:24:29.563Z,1.63
2023-04-12T03:25:29.614Z,1.44
2023-04-12T03:26:29.666Z,1.44
2023-04-12T03:27:29.721Z,1.48
2023-04-12T03:28:29.771Z,1.51
2023-04-12T03:29:29.831Z,2.05
2023-04-12T03:30:29.893Z,1.78
2023-04-12T03:31:30.039Z,1.57
2023-04-12T03:32:30.032Z,1.46
2023-04-12T03:33:30.072Z,1.78
2023-04-12T03:34:30.115Z,1.58
2023-04-12T03:35:30.233Z,1.20
2023-04-12T03:36:30.243Z,1.02
2023-04-12T03:37:30.310Z,1.36
2023-04-12T03:38:30.357Z,1.40
2023-04-12T03:39:30.406Z,1.86
2023-04-12T03:40:30.456Z,1.58
2023-04-12T03:41:30.518Z,1.71
2023-04-12T03:42:33.632Z,1.20
2023-04-12T03:43:30.562Z,1.24
2023-04-12T03:44:30.567Z,1.49
2023-04-12T03:45:30.551Z,1.49
2023-04-12T03:46:30.578Z,1.32
2023-04-12T03:47:30.555Z,1.67
2023-04-12T03:48:30.508Z,1.57
2023-04-12T03:49:30.517Z,1.31
2023-04-12T03:50:30.502Z,1.05
2023-04-12T03:51:30.499Z,1.82
2023-04-12T03:52:30.503Z,1.58
2023-04-12T03:53:30.486Z,1.31
2023-04-12T03:54:30.483Z,1.51
2023-04-12T03:55:30.481Z,1.44
2023-04-12T03:56:30.486Z,1.42
2023-04-12T03:57:30.468Z,1.51
2023-04-12T03:58:30.477Z,1.31
2023-04-12T03:59:30.466Z,1.67
2023-04-12T04:00:30.467Z,1.01
2023-04-12T04:01:30.544Z,1.66
2023-04-12T04:02:30.693Z,1.34
2023-04-12T04:03:30.597Z,0.96
2023-04-12T04:04:30.508Z,1.29
2023-04-12T04:05:30.449Z,1.51
2023-04-12T04:06:30.482Z,1.46
2023-04-12T04:07:30.446Z,1.76
2023-04-12T04:08:30.436Z,1.19
2023-04-12T04:09:30.438Z,1.43
2023-04-12T04:10:30.437Z,1.49
2023-04-12T04:11:30.446Z,1.45
2023-04-12T04:12:30.452Z,1.36
2023-04-12T04:13:30.436Z,1.69
2023-04-12T04:14:30.421Z,1.10
2023-04-12T04:15:30.426Z,1.72
2023-04-12T04:16:30.434Z,1.56
2023-04-12T04:17:30.478Z,1.29
2023-04-12T04:18:30.474Z,1.11
2023-04-12T04:19:30.543Z,1.35
2023-04-12T04:20:30.574Z,1.22
2023-04-12T04:21:30.717Z,1.40
2023-04-12T04:22:30.680Z,1.49
2023-04-12T04:23:30.737Z,1.29
2023-04-12T04:24:30.790Z,1.46
2023-04-12T04:25:30.847Z,1.40
2023-04-12T04:26:30.880Z,1.59
2023-04-12T04:27:30.941Z,1.37
2023-04-12T04:28:31.021Z,1.12
2023-04-12T04:29:31.040Z,1.64
2023-04-12T04:30:31.124Z,1.45
2023-04-12T04:31:31.164Z,1.18
2023-04-12T04:32:31.240Z,1.12
2023-04-12T04:33:31.258Z,1.03
2023-04-12T04:34:31.306Z,1.59
2023-04-12T04:35:31.382Z,1.19
2023-04-12T04:36:31.399Z,1.50
2023-04-12T04:37:31.453Z,1.15
2023-04-12T04:38:31.516Z,1.32
2023-04-12T04:39:31.565Z,1.24
2023-04-12T04:40:31.608Z,1.27
2023-04-12T04:41:31.660Z,1.39
2023-04-12T04:42:31.723Z,1.32
2023-04-12T04:43:31.768Z,1.36
2023-04-12T04:44:31.860Z,1.14
2023-04-12T04:45:31.868Z,1.35
2023-04-12T04:46:31.903Z,1.55
2023-04-12T04:47:31.992Z,1.26
2023-04-12T04:48:32.017Z,1.29
2023-04-12T04:49:32.057Z,1.14
2023-04-12T04:50:32.116Z,0.93
2023-04-12T04:51:32.184Z,1.15
2023-04-12T04:52:32.219Z,1.23
2023-04-12T04:53:32.274Z,1.84
2023-04-12T04:54:32.328Z,1.48
2023-04-12T04:55:32.381Z,1.28
2023-04-12T04:56:32.439Z,0.92
2023-04-12T04:57:32.474Z,1.00
2023-04-12T04:58:32.529Z,1.20
2023-04-12T04:59:32.574Z,1.33
2023-04-12T05:00:32.609Z,1.24
2023-04-12T05:01:32.686Z,1.26
2023-04-12T05:02:32.764Z,1.33
2023-04-12T05:03:32.814Z,1.25
2023-04-12T05:04:32.871Z,1.62
2023-04-12T05:05:32.823Z,1.23
2023-04-12T05:06:32.875Z,1.02
2023-04-12T05:07:32.903Z,1.18
2023-04-12T05:08:32.937Z,1.19
2023-04-12T05:09:32.973Z,1.43
2023-04-12T05:10:33.015Z,0.93
2023-04-12T05:11:33.023Z,0.99
2023-04-12T05:12:33.257Z,1.08
2023-04-12T05:13:33.105Z,1.22
2023-04-12T05:14:45.529Z,1.11
2023-04-12T05:15:34.139Z,1.11
2023-04-12T05:16:33.144Z,1.15
2023-04-12T05:17:33.181Z,1.32
2023-04-12T05:18:33.125Z,0.92
2023-04-12T05:19:33.122Z,1.25
2023-04-12T05:20:33.120Z,1.42
2023-04-12T05:21:33.124Z,1.27
2023-04-12T05:22:33.113Z,1.02
2023-04-12T05:23:33.102Z,1.41
2023-04-12T05:24:33.102Z,1.23
2023-04-12T05:25:33.087Z,1.48
2023-04-12T05:26:33.073Z,1.30
2023-04-12T05:27:33.083Z,1.28
2023-04-12T05:28:33.074Z,1.78
2023-04-12T05:29:33.107Z,1.37
2023-04-12T05:30:34.135Z,1.25
2023-04-12T05:31:33.087Z,1.19
2023-04-12T05:32:33.871Z,1.57
2023-04-12T05:33:33.800Z,1.71
2023-04-12T05:34:33.048Z,1.39
2023-04-12T05:35:33.094Z,1.43
2023-04-12T05:36:33.047Z,1.33
2023-04-12T05:37:33.037Z,2.45
2023-04-12T05:38:33.029Z,1.20
2023-04-12T05:39:33.027Z,1.30
2023-04-12T05:40:33.021Z,1.37
2023-04-12T05:41:33.006Z,1.64
2023-04-12T05:42:33.011Z,1.80
2023-04-12T05:43:32.969Z,1.31
2023-04-12T05:44:32.961Z,1.24
2023-04-12T05:45:32.966Z,1.23
2023-04-12T05:46:33.042Z,1.49
2023-04-12T05:47:33.053Z,1.13
2023-04-12T05:48:33.054Z,1.61
2023-04-12T05:49:33.093Z,1.60
2023-04-12T05:50:33.128Z,1.38
2023-04-12T05:51:40.970Z,2.10
2023-04-12T05:52:34.128Z,1.58
2023-04-12T05:53:33.124Z,1.83
2023-04-12T05:54:33.081Z,1.68
2023-04-12T05:55:33.537Z,1.47
2023-04-12T05:56:33.081Z,1.60
2023-04-12T05:57:33.029Z,1.40
2023-04-12T05:58:33.013Z,1.19
2023-04-12T05:59:32.990Z,1.61
2023-04-12T06:00:32.989Z,1.51
2023-04-12T06:01:32.983Z,2.28
2023-04-12T06:02:33.115Z,1.81
2023-04-12T06:03:33.221Z,0.95
2023-04-12T06:04:46.849Z,1.22
2023-04-12T06:05:34.181Z,1.45
2023-04-12T06:06:33.043Z,1.39
2023-04-12T06:07:33.027Z,1.57
2023-04-12T06:08:34.943Z,1.79
2023-04-12T06:09:32.995Z,1.81
2023-04-12T06:10:32.973Z,1.40
2023-04-12T06:11:32.960Z,1.12
2023-04-12T06:12:32.952Z,1.37
2023-04-12T06:13:32.924Z,1.70
2023-04-12T06:14:32.922Z,1.42
2023-04-12T06:15:32.930Z,1.43
2023-04-12T06:16:32.998Z,1.59
2023-04-12T06:17:32.901Z,0.98
2023-04-12T06:18:32.883Z,2.15
2023-04-12T06:19:32.871Z,1.13
2023-04-12T06:20:32.859Z,1.71
2023-04-12T06:21:32.851Z,1.17
2023-04-12T06:22:32.860Z,1.54
2023-04-12T06:23:32.847Z,1.37
2023-04-12T06:24:32.807Z,1.32
2023-04-12T06:25:32.797Z,2.04
2023-04-12T06:26:39.859Z,1.48
2023-04-12T06:27:33.790Z,1.34
2023-04-12T06:28:32.806Z,1.64
2023-04-12T06:29:33.286Z,1.55
2023-04-12T06:30:32.888Z,1.43
2023-04-12T06:31:32.733Z,1.52
2023-04-12T06:32:32.713Z,1.27
2023-04-12T06:33:32.680Z,1.57
2023-04-12T06:34:34.413Z,1.56
2023-04-12T06:35:32.672Z,1.42
2023-04-12T06:36:32.625Z,1.76
2023-04-12T06:37:32.608Z,1.40
2023-04-12T06:38:32.582Z,1.43
2023-04-12T06:39:32.559Z,1.45
2023-04-12T06:40:32.541Z,1.51
2023-04-12T06:41:32.516Z,1.62
2023-04-12T06:42:32.507Z,1.60
2023-04-12T06:43:32.603Z,1.29
2023-04-12T06:44:33.357Z,1.32
2023-04-12T06:45:32.652Z,1.52
2023-04-12T06:46:32.723Z,1.15
2023-04-12T06:47:32.865Z,1.66
2023-04-12T06:48:33.714Z,1.79
2023-04-12T06:49:32.702Z,1.82
2023-04-12T06:50:32.688Z,1.40
2023-04-12T06:51:32.653Z,1.78
2023-04-12T06:52:32.618Z,1.66
2023-04-12T06:53:32.625Z,1.73
2023-04-12T06:54:32.563Z,1.51
2023-04-12T06:55:32.544Z,1.69
2023-04-12T06:56:32.526Z,1.68
2023-04-12T06:57:32.470Z,2.56
2023-04-12T06:58:32.442Z,1.89
2023-04-12T06:59:32.401Z,1.29
2023-04-12T07:00:32.402Z,1.48
2023-04-12T07:01:32.395Z,2.21
2023-04-12T07:02:32.561Z,1.51
2023-04-12T07:03:32.425Z,1.77
2023-04-12T07:04:32.411Z,1.70
2023-04-12T07:05:32.432Z,1.88
2023-04-12T07:06:32.433Z,1.62
2023-04-12T07:07:32.429Z,1.62
2023-04-12T07:08:32.429Z,1.65
2023-04-12T07:09:32.424Z,1.42
2023-04-12T07:10:32.431Z,1.62
2023-04-12T07:11:32.487Z,1.76
2023-04-12T07:12:32.436Z,1.50
2023-04-12T07:13:32.418Z,1.70
2023-04-12T07:14:32.397Z,1.54
2023-04-12T07:15:32.406Z,2.44
2023-04-12T07:16:32.574Z,2.75
2023-04-12T07:17:32.503Z,2.63
2023-04-12T07:18:32.482Z,3.12
2023-04-12T07:19:32.491Z,2.69
2023-04-12T07:20:32.603Z,3.29
2023-04-12T07:21:32.532Z,3.54
2023-04-12T07:22:32.571Z,3.14
2023-04-12T07:23:32.575Z,2.84
2023-04-12T07:24:32.581Z,3.19
2023-04-12T07:25:32.605Z,2.69
2023-04-12T07:26:32.612Z,2.72
2023-04-12T07:27:32.638Z,2.43
2023-04-12T07:28:32.705Z,2.32
2023-04-12T07:29:32.740Z,2.47
2023-04-12T07:30:32.767Z,2.32
2023-04-12T07:31:32.804Z,2.55
2023-04-12T07:32:32.862Z,2.75
2023-04-12T07:33:32.823Z,2.59
2023-04-12T07:34:32.810Z,2.30
2023-04-12T07:35:32.788Z,1.98
2023-04-12T07:36:32.818Z,2.26
2023-04-12T07:37:32.806Z,2.75
2023-04-12T07:38:32.847Z,2.20
2023-04-12T07:39:32.940Z,2.28
2023-04-12T07:40:32.905Z,2.08
2023-04-12T07:41:32.921Z,2.26
2023-04-12T07:42:32.943Z,2.59
2023-04-12T07:43:32.943Z,2.00
2023-04-12T07:44:32.927Z,1.87
2023-04-12T07:45:32.973Z,1.97
2023-04-12T07:46:32.941Z,2.32
2023-04-12T07:47:33.031Z,1.84
2023-04-12T07:48:32.990Z,2.38
2023-04-12T07:49:32.954Z,2.40
2023-04-12T07:50:32.925Z,1.97
2023-04-12T07:51:32.928Z,2.27
2023-04-12T07:52:32.982Z,2.19
2023-04-12T07:53:32.882Z,2.25
2023-04-12T07:54:32.852Z,2.48
2023-04-12T07:55:32.837Z,2.87
2023-04-12T07:56:32.905Z,2.00
2023-04-12T07:57:34.169Z,1.97
2023-04-12T07:58:32.918Z,2.37
2023-04-12T07:59:32.935Z,1.98
2023-04-12T08:00:32.896Z,2.08
2023-04-12T08:01:32.872Z,2.77
2023-04-12T08:02:32.969Z,2.51
2023-04-12T08:03:32.871Z,2.37
2023-04-12T08:04:32.816Z,2.22
2023-04-12T08:05:32.890Z,2.27
2023-04-12T08:06:34.236Z,2.99
2023-04-12T08:07:32.891Z,2.45
2023-04-12T08:08:32.903Z,1.85
2023-04-12T08:09:32.908Z,1.80
2023-04-12T08:10:32.906Z,2.19
2023-04-12T08:11:32.903Z,2.61
2023-04-12T08:12:33.892Z,2.26
2023-04-12T08:13:33.860Z,2.45
2023-04-12T08:14:32.854Z,2.04
2023-04-12T08:15:32.840Z,2.44
2023-04-12T08:16:32.759Z,1.85
2023-04-12T08:17:32.743Z,2.67
2023-04-12T08:18:32.680Z,2.68
2023-04-12T08:19:32.696Z,3.60
2023-04-12T08:20:32.617Z,3.75
2023-04-12T08:21:32.574Z,3.41
2023-04-12T08:22:32.547Z,3.66
2023-04-12T08:23:32.497Z,4.98
2023-04-12T08:24:32.507Z,5.15
2023-04-12T08:25:33.433Z,4.76
2023-04-12T08:26:32.389Z,4.34
2023-04-12T08:27:32.346Z,3.90
2023-04-12T08:28:32.304Z,4.43
2023-04-12T08:29:32.268Z,4.81
2023-04-12T08:30:32.231Z,4.62
2023-04-12T08:31:32.269Z,4.61
2023-04-12T08:32:32.241Z,3.78
2023-04-12T08:33:32.108Z,3.84
2023-04-12T08:34:32.076Z,4.25
2023-04-12T08:35:32.094Z,4.55
2023-04-12T08:36:31.976Z,4.17
2023-04-12T08:37:32.911Z,3.68
2023-04-12T08:39:32.842Z,3.65
2023-04-12T08:40:31.963Z,3.75
2023-04-12T08:41:31.783Z,4.23
2023-04-12T08:42:31.710Z,3.74
2023-04-12T08:43:31.662Z,4.09
2023-04-12T08:44:31.624Z,4.15
2023-04-12T08:45:31.575Z,4.34
2023-04-12T08:46:31.639Z,3.91
2023-04-12T08:47:31.560Z,3.17
2023-04-12T08:48:31.550Z,4.35
2023-04-12T08:49:32.402Z,3.89
2023-04-12T08:50:31.581Z,3.82
2023-04-12T08:51:31.597Z,3.30
2023-04-12T08:52:31.614Z,3.35
2023-04-12T08:53:31.635Z,4.04
2023-04-12T08:54:31.614Z,3.65
2023-04-12T08:55:31.623Z,3.72
2023-04-12T08:56:31.633Z,3.49
2023-04-12T08:57:31.764Z,3.65
2023-04-12T08:58:31.630Z,3.77
2023-04-12T08:59:31.638Z,3.47
2023-04-12T09:00:31.636Z,3.72
2023-04-12T09:01:31.671Z,3.23
2023-04-12T09:02:31.907Z,3.55
2023-04-12T09:03:33.539Z,4.69
2023-04-12T09:04:31.630Z,3.19
2023-04-12T09:05:31.569Z,3.57
2023-04-12T09:06:31.567Z,3.32
2023-04-12T09:07:31.544Z,3.69
2023-04-12T09:09:51.158Z,3.53
2023-04-12T09:10:51.099Z,3.25
2023-04-12T09:11:52.069Z,3.56
2023-04-12T09:12:52.780Z,3.83
2023-04-12T09:13:58.730Z,3.56
2023-04-12T09:14:50.959Z,3.78
2023-04-12T09:15:50.903Z,3.74
2023-04-12T09:16:50.947Z,4.35
2023-04-12T09:17:50.887Z,4.62
2023-04-12T09:18:50.772Z,3.52
2023-04-12T09:19:50.846Z,3.04
2023-04-12T09:20:50.678Z,3.73
2023-04-12T09:21:50.641Z,4.53
2023-04-12T09:22:50.612Z,3.13
2023-04-12T09:23:50.557Z,3.43
2023-04-12T09:24:50.625Z,3.64
2023-04-12T09:25:50.565Z,4.28
2023-04-12T09:26:50.581Z,3.69
2023-04-12T09:27:50.687Z,4.02
2023-04-12T09:28:50.608Z,3.32
2023-04-12T09:29:50.646Z,3.34
2023-04-12T09:30:50.661Z,3.88
2023-04-12T09:31:50.728Z,3.64
2023-04-12T09:32:50.858Z,3.38
2023-04-12T09:33:50.710Z,3.49
2023-04-12T09:34:50.734Z,3.20
2023-04-12T09:35:50.806Z,3.39
2023-04-12T09:36:50.820Z,3.20
2023-04-12T09:37:50.804Z,3.17
2023-04-12T09:38:50.782Z,3.29
2023-04-12T09:39:50.790Z,3.65
2023-04-12T09:40:50.797Z,3.56
2023-04-12T09:41:50.737Z,3.67
2023-04-12T09:42:50.774Z,3.51
2023-04-12T09:43:50.848Z,3.78
2023-04-12T09:44:50.777Z,3.35
2023-04-12T09:45:50.832Z,3.20
2023-04-12T09:46:51.037Z,3.89
2023-04-12T09:47:50.909Z,3.05
2023-04-12T09:48:50.839Z,3.14
2023-04-12T09:49:50.831Z,3.29
2023-04-12T09:50:50.916Z,2.91
2023-04-12T09:51:50.961Z,3.49
2023-04-12T09:52:51.030Z,3.53
2023-04-12T09:53:51.113Z,3.63
2023-04-12T09:54:51.109Z,3.56
2023-04-12T09:55:51.090Z,2.87
2023-04-12T09:56:51.423Z,3.22
2023-04-12T09:57:51.089Z,3.38
2023-04-12T09:58:51.088Z,3.53
2023-04-12T09:59:51.053Z,3.61
2023-04-12T10:00:51.046Z,3.45
2023-04-12T10:01:51.034Z,2.76
2023-04-12T10:02:51.794Z,3.08
2023-04-12T10:03:51.212Z,2.76
2023-04-12T10:04:51.072Z,3.02
2023-04-12T10:05:50.939Z,3.08
2023-04-12T10:06:50.914Z,2.94
2023-04-12T10:07:50.903Z,3.86
2023-04-12T10:08:50.968Z,3.82
2023-04-12T10:09:51.002Z,2.88
2023-04-12T10:10:50.982Z,3.94
2023-04-12T10:11:51.016Z,2.89
2023-04-12T10:12:51.008Z,3.11
2023-04-12T10:13:51.436Z,3.35
2023-04-12T10:14:50.921Z,3.40
2023-04-12T10:15:50.930Z,2.97
2023-04-12T10:16:50.849Z,2.88
2023-04-12T10:17:50.899Z,3.09
2023-04-12T10:18:50.803Z,2.91
2023-04-12T10:19:50.826Z,3.36
2023-04-12T10:20:50.830Z,3.11
2023-04-12T10:21:50.812Z,3.01
2023-04-12T10:22:50.957Z,3.55
2023-04-12T10:23:50.715Z,3.14
2023-04-12T10:24:50.726Z,3.23
2023-04-12T10:25:50.751Z,3.69
2023-04-12T10:26:50.873Z,3.38
2023-04-12T10:27:50.814Z,3.22
2023-04-12T10:28:50.756Z,3.27
2023-04-12T10:29:50.751Z,3.66
2023-04-12T10:30:50.710Z,3.28
2023-04-12T10:31:50.797Z,3.33
2023-04-12T10:32:50.763Z,2.86
2023-04-12T10:33:50.722Z,3.17
2023-04-12T10:34:50.669Z,3.06
2023-04-12T10:35:50.700Z,3.35
2023-04-12T10:36:50.627Z,2.87
2023-04-12T10:37:50.591Z,4.34
2023-04-12T10:38:50.646Z,2.95
2023-04-12T10:39:50.706Z,3.09
2023-04-12T10:40:50.761Z,3.13
2023-04-12T10:41:50.817Z,3.11
2023-04-12T10:42:50.910Z,3.17
2023-04-12T10:43:50.948Z,3.34
2023-04-12T10:44:51.004Z,3.07
2023-04-12T10:45:51.065Z,2.33
2023-04-12T10:46:51.307Z,3.01
2023-04-12T10:47:51.878Z,2.49
2023-04-12T10:48:51.189Z,3.10
2023-04-12T10:49:51.242Z,3.29
2023-04-12T10:50:51.230Z,3.46
2023-04-12T10:51:51.259Z,3.24
2023-04-12T10:52:51.215Z,2.71
2023-04-12T10:53:51.212Z,2.65
2023-04-12T10:54:51.185Z,2.89
2023-04-12T10:55:51.209Z,2.79
2023-04-12T10:56:51.190Z,3.04
2023-04-12T10:57:51.225Z,2.54
2023-04-12T10:58:51.164Z,2.61
2023-04-12T10:59:51.204Z,2.78
2023-04-12T11:00:51.246Z,2.68
2023-04-12T11:01:51.333Z,2.74
2023-04-12T11:02:51.329Z,3.17
2023-04-12T11:03:51.528Z,2.96
2023-04-12T11:04:51.290Z,2.99
2023-04-12T11:05:51.296Z,3.49
2023-04-12T11:06:52.527Z,2.93
2023-04-12T11:07:51.215Z,2.89
2023-04-12T11:08:51.178Z,2.72
2023-04-12T11:09:51.136Z,2.75
2023-04-12T11:10:51.146Z,3.01
2023-04-12T11:11:51.117Z,2.89
2023-04-12T11:12:51.124Z,2.77
2023-04-12T11:13:51.189Z,2.09
2023-04-12T11:14:51.171Z,2.53
2023-04-12T11:15:51.141Z,2.77
2023-04-12T11:16:51.186Z,2.67
2023-04-12T11:17:51.262Z,2.65
2023-04-12T11:18:51.180Z,3.00
2023-04-12T11:19:51.108Z,2.57
2023-04-12T11:20:51.113Z,2.73
2023-04-12T11:21:51.170Z,3.03
2023-04-12T11:22:51.168Z,3.30
2023-04-12T11:23:51.177Z,2.93
2023-04-12T11:24:51.151Z,2.32
2023-04-12T11:25:51.116Z,3.53
2023-04-12T11:26:51.077Z,2.88
2023-04-12T11:27:51.071Z,2.76
2023-04-12T11:28:51.116Z,2.31
2023-04-12T11:29:51.124Z,3.05
2023-04-12T11:30:51.128Z,2.81
2023-04-12T11:31:51.216Z,2.36
2023-04-12T11:32:51.217Z,2.90
2023-04-12T11:33:51.155Z,2.69
2023-04-12T11:34:51.240Z,2.79
2023-04-12T11:35:51.159Z,3.18
2023-04-12T11:36:51.159Z,2.60
2023-04-12T11:37:51.173Z,2.82
2023-04-12T11:38:51.255Z,2.80
2023-04-12T11:39:51.294Z,2.50
2023-04-12T11:40:51.375Z,2.75
2023-04-12T11:41:51.392Z,2.41
2023-04-12T11:42:51.377Z,2.75
2023-04-12T11:43:51.388Z,2.49
2023-04-12T11:44:55.835Z,2.50
2023-04-12T11:45:52.343Z,2.41
2023-04-12T11:46:51.305Z,2.24
2023-04-12T11:47:51.910Z,3.16
2023-04-12T11:48:51.255Z,2.28
2023-04-12T11:49:51.214Z,2.74
2023-04-12T11:50:59.865Z,2.66
2023-04-12T11:51:52.164Z,2.77
2023-04-12T11:52:51.139Z,2.19
2023-04-12T11:53:51.106Z,3.32
2023-04-12T11:54:51.114Z,3.05
2023-04-12T11:55:51.045Z,3.03
2023-04-12T11:56:51.013Z,2.24
2023-04-12T11:57:50.988Z,2.48
2023-04-12T11:58:50.967Z,2.85
2023-04-12T11:59:50.928Z,2.77
2023-04-12T12:00:50.899Z,2.26
2023-04-12T12:01:50.898Z,2.50
2023-04-12T12:03:06.609Z,2.72
2023-04-12T12:03:52.195Z,2.52
2023-04-12T12:04:51.135Z,2.70
2023-04-12T12:05:50.938Z,2.78
2023-04-12T12:06:50.939Z,2.79
2023-04-12T12:07:50.759Z,2.77
2023-04-12T12:08:50.737Z,2.28
2023-04-12T12:09:50.704Z,2.49
2023-04-12T12:11:50.655Z,3.18
2023-04-12T12:12:50.612Z,2.46
2023-04-12T12:13:50.622Z,2.62
2023-04-12T12:14:50.566Z,2.65
2023-04-12T12:15:50.553Z,2.64
2023-04-12T12:16:50.487Z,2.27
2023-04-12T12:17:50.550Z,2.47
2023-04-12T12:18:52.824Z,3.12
2023-04-12T12:19:50.640Z,3.17
2023-04-12T12:20:50.611Z,2.51
2023-04-12T12:21:50.613Z,2.39
2023-04-12T12:22:50.612Z,2.90
2023-04-12T12:23:50.584Z,2.73
2023-04-12T12:24:50.555Z,2.14
2023-04-12T12:25:50.623Z,2.99
2023-04-12T12:26:50.663Z,2.57
2023-04-12T12:27:50.745Z,2.44
2023-04-12T12:28:50.776Z,2.21
2023-04-12T12:29:50.827Z,2.19
2023-04-12T12:30:50.881Z,2.26
2023-04-12T12:31:51.056Z,2.98
2023-04-12T12:32:51.015Z,2.34
2023-04-12T12:33:51.036Z,2.38
2023-04-12T12:34:51.105Z,2.67
2023-04-12T12:35:51.151Z,2.93
2023-04-12T12:36:51.194Z,2.22
2023-04-12T12:37:51.228Z,2.56
2023-04-12T12:38:51.348Z,2.90
2023-04-12T12:39:51.219Z,2.17
2023-04-12T12:40:51.207Z,2.84
2023-04-12T12:41:51.185Z,2.20
2023-04-12T12:42:51.228Z,2.17
2023-04-12T12:43:51.275Z,2.29
2023-04-12T12:44:51.327Z,2.32
2023-04-12T12:45:51.286Z,2.23
2023-04-12T12:46:56.813Z,2.53
2023-04-12T12:47:52.342Z,2.35
2023-04-12T12:48:51.193Z,2.56
2023-04-12T12:49:51.165Z,2.26
2023-04-12T12:50:51.138Z,2.38
2023-04-12T12:51:51.093Z,2.24
2023-04-12T12:52:51.062Z,2.74
2023-04-12T12:53:51.020Z,2.15
2023-04-12T12:54:51.053Z,2.48
2023-04-12T12:55:50.961Z,2.61
2023-04-12T12:56:50.930Z,2.42
2023-04-12T12:58:06.055Z,2.35
2023-04-12T12:58:51.887Z,2.65
2023-04-12T12:59:50.867Z,2.03
2023-04-12T13:00:50.826Z,2.37
2023-04-12T13:01:50.968Z,2.34
2023-04-12T13:02:50.911Z,2.30
2023-04-12T13:03:51.934Z,2.79
2023-04-12T13:04:50.737Z,2.10
2023-04-12T13:05:50.643Z,2.27
2023-04-12T13:06:50.616Z,2.40
2023-04-12T13:07:50.565Z,2.52
2023-04-12T13:08:50.529Z,2.27
2023-04-12T13:09:50.500Z,2.42
2023-04-12T13:10:50.457Z,2.97
2023-04-12T13:11:50.559Z,2.77
2023-04-12T13:12:50.609Z,2.34
2023-04-12T13:13:50.597Z,2.03
2023-04-12T13:14:50.643Z,2.82
2023-04-12T13:15:50.747Z,2.82
2023-04-12T13:16:50.814Z,2.61
2023-04-12T13:17:50.865Z,2.19
2023-04-12T13:18:50.872Z,2.34
2023-04-12T13:19:50.905Z,2.59
2023-04-12T13:20:50.934Z,2.08
2023-04-12T13:21:53.105Z,2.36